Time;durP1;ratioP1;P1;durP2;ratioP2;P2;SDS_P1;SDS_P2;PMS_P1;PMS_P2;Temp;Humidity;BMP_temperature;BMP_pressure;BME280_temperature;BME280_humidity;BME280_pressure;Samples;Min_cycle;Max_cycle;Signal;HPM_P1;HPM_P2
2022/12/20 00:00:52;;;;;;;13.82;8.90;;;;;;;0.54;88.23;96717.75;5074775;28;20232;-74
2022/12/20 00:03:19;;;;;;;13.85;9.52;;;;;;;0.57;88.12;96721.13;5074745;28;20204;-74
2022/12/20 00:05:46;;;;;;;20.10;9.32;;;;;;;0.58;88.24;96720.28;5075035;28;20337;-74
2022/12/20 00:08:13;;;;;;;13.35;8.75;;;;;;;0.56;88.08;96727.16;5075140;28;20284;-75
2022/12/20 00:10:43;;;;;;;15.55;8.68;;;;;;;0.52;87.94;96722.94;5075104;28;20544;-74
2022/12/20 00:13:11;;;;;;;15.13;8.95;;;;;;;0.53;88.02;96723.78;5075326;28;20249;-75
2022/12/20 00:15:38;;;;;;;13.07;8.45;;;;;;;0.31;88.23;96725.88;5075392;28;20652;-75
2022/12/20 00:18:05;;;;;;;13.07;8.63;;;;;;;0.33;87.66;96729.28;5023178;28;20669;-74
2022/12/20 00:20:32;;;;;;;13.93;7.90;;;;;;;0.29;87.92;96714.72;5074465;28;20630;-75
2022/12/20 00:22:59;;;;;;;14.40;7.85;;;;;;;0.39;87.73;96734.34;5074335;28;20210;-74
2022/12/20 00:25:26;;;;;;;15.15;8.65;;;;;;;0.41;87.80;96736.91;5023094;28;20196;-74
2022/12/20 00:27:54;;;;;;;15.73;8.93;;;;;;;0.48;87.94;96728.16;5074422;28;20203;-74
2022/12/20 00:30:21;;;;;;;12.52;9.88;;;;;;;0.48;87.66;96743.66;5074477;28;20724;-74
2022/12/20 00:32:48;;;;;;;12.17;8.00;;;;;;;0.33;87.15;96734.44;5074346;28;20690;-75
2022/12/20 00:35:15;;;;;;;13.45;7.90;;;;;;;0.48;86.71;96738.50;5074417;28;20462;-74
2022/12/20 00:37:41;;;;;;;13.60;7.93;;;;;;;0.32;86.99;96727.56;5074108;28;20207;-74
2022/12/20 00:40:09;;;;;;;17.35;8.48;;;;;;;0.41;87.06;96730.00;5074222;28;20204;-75
2022/12/20 00:42:36;;;;;;;12.13;7.65;;;;;;;0.34;86.97;96725.81;5074160;28;20810;-74
2022/12/20 00:45:05;;;;;;;14.98;9.50;;;;;;;0.30;87.37;96719.00;5074323;28;20210;-75
2022/12/20 00:47:32;;;;;;;12.18;7.65;;;;;;;0.23;87.09;96722.53;5074349;28;20264;-75
2022/12/20 00:49:59;;;;;;;14.85;7.85;;;;;;;0.26;87.12;96727.63;5074375;28;20290;-75
2022/12/20 00:52:26;;;;;;;11.77;6.40;;;;;;;0.30;86.91;96729.34;5074181;28;20214;-75
2022/12/20 00:54:52;;;;;;;13.45;8.63;;;;;;;0.22;86.86;96721.69;5074198;28;20643;-74
2022/12/20 00:57:19;;;;;;;12.05;7.18;;;;;;;0.36;86.96;96731.81;5022244;28;20650;-74
2022/12/20 00:59:46;;;;;;;10.82;8.13;;;;;;;0.39;86.82;96734.34;5073465;28;20655;-75
2022/12/20 01:02:14;;;;;;;13.63;7.95;;;;;;;0.36;86.75;96739.56;5073738;28;20800;-74
2022/12/20 01:04:41;;;;;;;15.43;8.52;;;;;;;0.26;86.66;96727.63;5038486;28;20216;-74
2022/12/20 01:07:07;;;;;;;17.13;7.68;;;;;;;0.32;87.50;96734.47;5073413;28;20206;-75
2022/12/20 01:09:34;;;;;;;12.07;7.50;;;;;;;0.42;87.15;96736.88;5073508;28;20229;-76
2022/12/20 01:12:01;;;;;;;15.55;8.13;;;;;;;0.37;87.38;96730.94;5073237;28;20217;-75
2022/12/20 01:14:28;;;;;;;16.05;8.35;;;;;;;0.30;87.43;96727.59;5073438;28;20216;-74
2022/12/20 01:16:54;;;;;;;11.45;7.50;;;;;;;0.32;87.00;96730.16;5072991;28;20208;-75
2022/12/20 01:19:23;;;;;;;13.63;8.60;;;;;;;0.33;87.34;96723.25;5073249;28;20214;-74
2022/12/20 01:21:50;;;;;;;13.85;8.60;;;;;;;0.18;87.52;96719.16;5072857;28;20687;-75
2022/12/20 01:24:18;;;;;;;15.73;9.20;;;;;;;0.08;88.00;96715.88;5073193;28;20203;-74
2022/12/20 01:26:46;;;;;;;14.57;8.63;;;;;;;0.05;87.81;96708.19;5072777;28;20298;-75
2022/12/20 01:29:13;;;;;;;12.63;8.38;;;;;;;0.02;87.19;96712.53;5073000;28;20226;-74
2022/12/20 01:31:41;;;;;;;12.18;8.32;;;;;;;-0.02;87.40;96709.97;5073202;28;20294;-74
2022/12/20 01:34:08;;;;;;;14.85;8.43;;;;;;;-0.06;88.55;96705.75;5073020;28;20206;-75
2022/12/20 01:36:38;;;;;;;10.13;6.68;;;;;;;-0.09;88.81;96700.63;5072917;28;20653;-74
2022/12/20 01:39:07;;;;;;;12.07;7.68;;;;;;;-0.17;89.31;96702.47;5073030;28;20206;-74
2022/12/20 01:41:35;;;;;;;17.02;8.50;;;;;;;-0.24;89.69;96694.84;5021040;28;20203;-74
2022/12/20 01:44:03;;;;;;;21.25;8.85;;;;;;;-0.13;89.11;96692.97;5073060;28;20207;-75
2022/12/20 01:46:32;;;;;;;19.98;8.82;;;;;;;-0.08;89.16;96701.47;5072924;28;20215;-75
2022/12/20 01:49:05;;;;;;;18.15;9.05;;;;;;;-0.17;89.46;96694.72;5072131;28;20232;-74
2022/12/20 01:51:34;;;;;;;14.35;9.20;;;;;;;-0.11;89.07;96692.06;5072835;28;20206;-75
2022/12/20 01:54:07;;;;;;;13.13;7.07;;;;;;;-0.16;88.09;96682.69;5072919;28;20206;-75
2022/12/20 01:56:34;;;;;;;11.43;7.53;;;;;;;-0.33;88.29;96686.34;5072921;28;20206;-75
2022/12/20 01:59:02;;;;;;;12.07;7.68;;;;;;;-0.38;89.30;96682.97;5072676;28;20230;-74
2022/12/20 02:01:29;;;;;;;9.85;7.90;;;;;;;-0.44;89.08;96677.91;5036920;28;20222;-75
2022/12/20 02:03:56;;;;;;;13.60;8.02;;;;;;;-0.40;89.32;96665.81;5072799;28;20627;-75
2022/12/20 02:06:24;;;;;;;15.07;7.88;;;;;;;-0.30;88.68;96662.22;5072478;28;20229;-74
2022/12/20 02:08:55;;;;;;;13.80;8.07;;;;;;;-0.28;88.16;96662.25;5072521;28;20287;-74
2022/12/20 02:11:37;;;;;;;10.85;7.60;;;;;;;-0.24;88.00;96658.75;5037123;28;20256;-74
2022/12/20 02:14:14;;;;;;;11.90;8.23;;;;;;;-0.33;88.88;96667.44;5072582;28;20522;-75
2022/12/20 02:16:47;;;;;;;12.48;7.53;;;;;;;-0.38;89.04;96661.50;5023314;28;20232;-74
2022/12/20 02:19:36;;;;;;;13.38;9.00;;;;;;;-0.34;88.92;96663.16;5072580;28;20614;-75
2022/12/20 02:22:16;;;;;;;13.70;9.02;;;;;;;-0.50;89.13;96661.66;5072760;28;20195;-75
2022/12/20 02:25:16;;;;;;;12.68;8.45;;;;;;;-0.37;88.39;96660.63;5072361;28;20289;-74
2022/12/20 02:27:54;;;;;;;23.92;11.90;;;;;;;-0.30;88.05;96667.38;5072472;28;20206;-74
2022/12/20 02:30:23;;;;;;;17.27;10.88;;;;;;;-0.36;88.28;96665.75;5072445;28;20222;-75
2022/12/20 02:32:59;;;;;;;14.52;8.25;;;;;;;-0.41;88.34;96670.13;5072379;28;20205;-75
2022/12/20 02:35:32;;;;;;;15.02;8.88;;;;;;;-0.32;88.10;96669.13;5072369;28;20204;-75
2022/12/20 02:38:00;;;;;;;12.23;9.35;;;;;;;-0.25;87.74;96664.78;5072161;28;20571;-74
2022/12/20 02:40:32;;;;;;;17.65;10.70;;;;;;;-0.24;87.82;96669.06;5072389;28;20207;-75
2022/12/20 02:43:03;;;;;;;14.38;8.38;;;;;;;-0.29;87.21;96658.78;5072414;28;20283;-75
2022/12/20 02:45:35;;;;;;;15.15;9.60;;;;;;;-0.11;86.84;96665.41;5072504;28;20212;-75
2022/12/20 02:48:04;;;;;;;12.77;7.95;;;;;;;-0.29;86.72;96660.50;5072422;28;20195;-75
2022/12/20 02:50:36;;;;;;;15.55;9.95;;;;;;;-0.16;86.55;96657.75;5072197;28;20236;-74
2022/12/20 02:53:05;;;;;;;18.73;10.52;;;;;;;-0.12;86.46;96650.81;5072287;28;20204;-75
2022/12/20 02:55:39;;;;;;;15.68;10.02;;;;;;;-0.19;86.32;96657.78;5072306;28;20205;-75
2022/12/20 02:58:17;;;;;;;14.10;8.40;;;;;;;-0.27;86.74;96653.63;5071938;28;20632;-75
2022/12/20 03:00:49;;;;;;;16.67;9.45;;;;;;;-0.31;87.43;96652.78;5073476;28;20201;-73
2022/12/20 03:03:25;;;;;;;12.73;8.20;;;;;;;-0.29;87.65;96651.03;5075575;28;20575;-74
2022/12/20 03:05:54;;;;;;;13.02;9.88;;;;;;;-0.29;87.26;96650.19;5076040;28;20214;-75
2022/12/20 03:08:21;;;;;;;15.02;10.02;;;;;;;-0.42;87.51;96649.50;5075545;28;20210;-74
2022/12/20 03:10:49;;;;;;;16.08;10.07;;;;;;;-0.54;88.52;96647.13;5075510;28;20234;-75
2022/12/20 03:13:16;;;;;;;25.73;10.57;;;;;;;-0.24;88.11;96645.84;5075635;28;20244;-75
2022/12/20 03:15:43;;;;;;;16.08;8.43;;;;;;;-0.35;87.44;96645.97;5075779;28;20237;-74
2022/12/20 03:18:11;;;;;;;14.18;10.10;;;;;;;-0.13;87.85;96642.22;5075491;28;20218;-75
2022/12/20 03:20:38;;;;;;;15.68;9.05;;;;;;;0.09;87.12;96641.91;5075655;28;20255;-76
2022/12/20 03:23:06;;;;;;;19.17;9.18;;;;;;;0.16;86.38;96646.94;5075312;28;20297;-74
2022/12/20 03:25:32;;;;;;;17.67;12.07;;;;;;;0.28;86.02;96645.84;5075155;28;20558;-75
2022/12/20 03:27:59;;;;;;;15.82;9.45;;;;;;;0.29;85.48;96651.03;5075270;28;20364;-75
2022/12/20 03:30:26;;;;;;;14.93;10.50;;;;;;;0.32;85.21;96644.97;5075130;28;20230;-74
2022/12/20 03:32:53;;;;;;;19.42;10.18;;;;;;;0.38;84.75;96650.00;5075327;28;20207;-75
2022/12/20 03:35:23;;;;;;;18.95;12.90;;;;;;;0.47;84.40;96642.09;5075219;28;20219;-75
2022/12/20 03:37:50;;;;;;;23.52;14.40;;;;;;;0.48;84.02;96641.22;5075033;28;20525;-74
2022/12/20 03:40:17;;;;;;;18.52;10.95;;;;;;;0.55;83.91;96647.97;5023370;28;20277;-75
2022/12/20 03:42:44;;;;;;;17.38;11.30;;;;;;;0.52;83.74;96653.19;5075163;28;20214;-75
2022/12/20 03:45:11;;;;;;;20.90;11.25;;;;;;;0.67;83.87;96651.25;5075079;28;20209;-75
2022/12/20 03:47:37;;;;;;;17.08;10.35;;;;;;;0.74;82.92;96648.50;5075007;28;20205;-75
2022/12/20 03:50:05;;;;;;;20.88;11.90;;;;;;;0.69;82.92;96644.31;5074854;28;20236;-75
2022/12/20 03:52:34;;;;;;;17.90;11.32;;;;;;;0.71;83.05;96642.56;5075082;28;20311;-74
2022/12/20 03:55:01;;;;;;;15.98;10.18;;;;;;;0.64;82.65;96640.97;5074874;28;20267;-75
2022/12/20 03:57:27;;;;;;;21.58;11.35;;;;;;;0.73;82.53;96643.38;5074996;28;20210;-75
2022/12/20 03:59:54;;;;;;;23.50;12.27;;;;;;;0.73;82.66;96639.06;5074476;28;20205;-75
2022/12/20 04:02:21;;;;;;;17.98;11.00;;;;;;;0.77;82.30;96632.94;5074590;28;20288;-75
2022/12/20 04:04:48;;;;;;;17.85;11.15;;;;;;;0.70;81.95;96631.38;5074374;28;20207;-74
2022/12/20 04:07:15;;;;;;;21.10;12.55;;;;;;;0.70;81.81;96633.09;5074424;28;20206;-75
2022/12/20 04:09:43;;;;;;;27.10;15.32;;;;;;;0.62;81.52;96638.41;5074632;28;20685;-75
2022/12/20 04:12:10;;;;;;;30.27;16.50;;;;;;;0.63;81.84;96628.94;5073761;28;20263;-74
2022/12/20 04:14:37;;;;;;;23.55;15.75;;;;;;;0.66;81.68;96639.22;5074365;28;20198;-75
2022/12/20 04:17:04;;;;;;;25.80;15.60;;;;;;;0.52;82.69;96627.38;5074477;28;20835;-75
2022/12/20 04:19:31;;;;;;;19.40;14.88;;;;;;;0.60;82.31;96620.38;5074279;28;20457;-75
2022/12/20 04:21:58;;;;;;;23.27;12.95;;;;;;;0.55;82.37;96627.31;5073569;28;20268;-74
2022/12/20 04:24:25;;;;;;;25.65;14.65;;;;;;;0.34;83.10;96622.56;5021943;28;20290;-75
2022/12/20 04:26:53;;;;;;;22.92;12.10;;;;;;;-0.08;83.68;96627.50;5073493;28;20258;-75
2022/12/20 04:29:19;;;;;;;19.13;10.98;;;;;;;-0.44;85.46;96615.16;5073296;28;20222;-75
2022/12/20 04:31:46;;;;;;;45.22;27.13;;;;;;;-0.65;86.75;96614.56;5073337;28;20206;-75
2022/12/20 04:34:13;;;;;;;64.45;27.55;;;;;;;-0.81;87.15;96610.53;5073479;28;20228;-74
2022/12/20 04:36:42;;;;;;;29.73;13.45;;;;;;;-1.02;88.43;96609.06;5074381;28;20237;-75
2022/12/20 04:39:09;;;;;;;18.38;11.95;;;;;;;-1.00;88.36;96614.19;5074185;28;20211;-74
2022/12/20 04:41:38;;;;;;;21.92;12.90;;;;;;;-1.09;88.32;96611.72;5073982;28;20199;-74
2022/12/20 04:44:07;;;;;;;65.32;24.55;;;;;;;-1.19;88.66;96604.97;5073725;28;20602;-74
2022/12/20 04:46:33;;;;;;;66.20;28.90;;;;;;;-1.29;89.08;96610.22;5073749;28;20210;-75
2022/12/20 04:49:00;;;;;;;82.65;42.95;;;;;;;-1.31;90.72;96606.81;5022161;28;20210;-75
2022/12/20 04:51:28;;;;;;;26.77;15.35;;;;;;;-1.28;90.97;96603.34;5073708;28;20202;-74
2022/12/20 04:53:54;;;;;;;24.83;15.95;;;;;;;-1.25;91.17;96599.00;5073579;28;20205;-74
2022/12/20 04:56:23;;;;;;;26.77;16.97;;;;;;;-0.90;90.76;96610.59;5073818;28;20206;-75
2022/12/20 04:58:52;;;;;;;22.92;14.55;;;;;;;-0.62;90.03;96608.53;5073467;28;20523;-74
2022/12/20 05:01:20;;;;;;;17.80;11.45;;;;;;;-0.71;88.41;96617.25;5073312;28;20238;-75
2022/12/20 05:03:49;;;;;;;17.13;12.00;;;;;;;-0.50;88.43;96608.38;5078267;28;20202;-75
2022/12/20 05:06:16;;;;;;;21.05;13.30;;;;;;;-0.41;87.56;96605.66;5085257;28;20206;-75
2022/12/20 05:08:43;;;;;;;22.10;12.68;;;;;;;-0.30;87.14;96597.75;5094023;28;20656;-77
2022/12/20 05:11:11;;;;;;;21.23;12.60;;;;;;;-0.41;86.81;96599.66;5094494;28;20214;-76
2022/12/20 05:13:37;;;;;;;23.80;15.57;;;;;;;-0.41;86.04;96604.81;5094476;28;20263;-76
2022/12/20 05:16:05;;;;;;;16.45;12.13;;;;;;;-0.32;86.20;96609.81;5093564;28;20206;-75
2022/12/20 05:18:42;;;;;;;15.40;11.70;;;;;;;-0.26;85.57;96612.34;5094572;28;20206;-74
2022/12/20 05:26:38;;;;;;;19.55;11.75;;;;;;;-0.37;85.57;96615.06;5094345;28;20204;-76
2022/12/20 05:29:06;;;;;;;20.33;10.57;;;;;;;-0.59;86.39;96605.06;5094140;28;20230;-75
2022/12/20 05:31:33;;;;;;;15.15;10.93;;;;;;;-0.77;87.51;96601.88;5093417;28;20221;-76
2022/12/20 05:34:01;;;;;;;17.25;12.10;;;;;;;-0.88;88.17;96608.00;5094066;28;20263;-76
2022/12/20 05:36:28;;;;;;;16.08;10.32;;;;;;;-1.19;89.18;96607.53;5094006;28;20210;-76
2022/12/20 05:38:55;;;;;;;18.00;11.20;;;;;;;-1.29;90.56;96602.50;5093813;28;20224;-75
2022/12/20 05:41:22;;;;;;;21.65;12.35;;;;;;;-1.34;91.01;96614.56;5094441;28;20197;-77
2022/12/20 05:43:48;;;;;;;22.33;11.70;;;;;;;-1.15;89.78;96604.94;5094295;28;20217;-76
2022/12/20 05:46:15;;;;;;;26.30;13.07;;;;;;;-0.93;89.67;96610.66;5093902;28;20224;-75
2022/12/20 05:48:42;;;;;;;25.52;15.93;;;;;;;-0.72;92.59;96604.38;5093260;28;20260;-75
2022/12/20 05:51:10;;;;;;;20.33;12.63;;;;;;;-0.78;89.20;96614.78;5057905;28;20228;-77
2022/12/20 05:53:37;;;;;;;17.20;11.25;;;;;;;-0.85;88.69;96608.84;5093370;28;20202;-76
2022/12/20 05:56:04;;;;;;;16.77;10.98;;;;;;;-0.91;88.46;96619.22;5093585;28;20206;-76
2022/12/20 05:58:31;;;;;;;18.30;11.90;;;;;;;-0.80;88.76;96609.66;5093909;28;20209;-76
2022/12/20 06:01:00;;;;;;;20.35;11.43;;;;;;;-0.66;88.46;96610.28;5093473;28;20286;-75
2022/12/20 06:03:27;;;;;;;24.02;10.93;;;;;;;-0.69;87.38;96619.81;5093372;28;20254;-76
2022/12/20 06:05:54;;;;;;;22.13;11.82;;;;;;;-0.90;87.06;96607.19;5093265;28;20235;-76
2022/12/20 06:08:23;;;;;;;20.35;10.95;;;;;;;-0.79;87.34;96618.22;5093603;28;20205;-77
2022/12/20 06:10:50;;;;;;;18.17;12.95;;;;;;;-0.63;87.04;96617.97;5090478;28;20236;-74
2022/12/20 06:13:17;;;;;;;23.20;11.60;;;;;;;-0.51;86.77;96610.97;5092581;28;20218;-74
2022/12/20 06:15:44;;;;;;;18.70;12.68;;;;;;;-0.60;86.61;96618.81;5092765;28;20214;-74
2022/12/20 06:18:11;;;;;;;36.13;22.02;;;;;;;0.96;100.00;96599.00;5092529;28;20201;-74
2022/12/20 06:20:38;;;;;;;18.77;12.30;;;;;;;0.39;99.56;96610.41;5092556;28;20213;-74
2022/12/20 06:23:06;;;;;;;22.20;13.02;;;;;;;0.42;92.47;96614.66;5085082;28;20202;-75
2022/12/20 06:25:34;;;;;;;30.42;18.70;;;;;;;0.46;87.74;96624.06;5086686;28;20624;-74
2022/12/20 06:28:01;;;;;;;36.35;19.05;;;;;;;0.57;87.27;96633.31;5093112;28;20211;-75
2022/12/20 06:30:28;;;;;;;41.58;22.17;;;;;;;0.51;85.15;96628.25;5092471;28;20322;-75
2022/12/20 06:32:55;;;;;;;29.00;19.42;;;;;;;0.57;87.10;96625.56;5092581;28;20646;-75
2022/12/20 06:35:22;;;;;;;36.78;22.98;;;;;;;0.69;86.08;96633.97;5094618;28;20209;-76
2022/12/20 06:37:48;;;;;;;48.22;26.80;;;;;;;0.71;85.44;96630.50;5097860;28;20206;-75
2022/12/20 06:40:15;;;;;;;40.60;23.77;;;;;;;0.69;83.55;96629.66;5096784;28;20203;-77
2022/12/20 06:42:43;;;;;;;81.45;35.25;;;;;;;0.62;82.77;96622.91;5039913;28;20211;-75
2022/12/20 06:45:11;;;;;;;152.93;57.65;;;;;;;0.54;82.59;96623.03;5076259;28;20212;-75
2022/12/20 06:47:38;;;;;;;79.32;41.10;;;;;;;0.49;84.01;96617.09;5076738;28;20651;-76
2022/12/20 06:50:06;;;;;;;155.07;77.88;;;;;;;0.38;83.70;96613.88;5025201;28;20325;-76
2022/12/20 06:52:33;;;;;;;108.18;56.63;;;;;;;0.39;84.46;96619.88;5017666;28;20196;-76
2022/12/20 06:55:00;;;;;;;77.18;38.83;;;;;;;0.47;85.18;96616.28;5082659;28;20907;-75
2022/12/20 06:57:26;;;;;;;97.30;48.20;;;;;;;0.62;86.75;96612.59;5096513;28;20211;-76
2022/12/20 06:59:55;;;;;;;79.82;40.40;;;;;;;0.68;86.37;96611.59;5045128;28;20599;-76
2022/12/20 07:02:21;;;;;;;63.53;37.60;;;;;;;0.75;85.74;96597.69;5095978;28;20244;-75
2022/12/20 07:04:48;;;;;;;71.63;36.72;;;;;;;0.72;83.15;96608.09;5075872;28;20218;-75
2022/12/20 07:07:16;;;;;;;59.28;31.27;;;;;;;0.85;83.17;96601.78;5075522;28;20215;-77
2022/12/20 07:09:42;;;;;;;51.53;24.67;;;;;;;0.82;81.13;96604.44;5076487;28;20281;-75
2022/12/20 07:12:10;;;;;;;40.72;21.92;;;;;;;0.86;80.35;96595.75;5075985;28;20263;-74
2022/12/20 07:14:37;;;;;;;41.65;21.65;;;;;;;0.92;79.65;96601.66;5090244;28;20203;-75
2022/12/20 07:17:06;;;;;;;28.65;17.27;;;;;;;0.89;79.06;96593.13;5091003;28;20195;-76
2022/12/20 07:19:33;;;;;;;27.15;16.85;;;;;;;1.00;80.16;96592.91;5075311;28;20239;-74
2022/12/20 07:21:59;;;;;;;36.45;17.00;;;;;;;1.03;79.30;96588.53;5086164;28;20198;-75
2022/12/20 07:24:26;;;;;;;35.20;19.85;;;;;;;1.12;78.33;96587.47;5084082;28;20211;-75
2022/12/20 07:26:53;;;;;;;30.95;17.33;;;;;;;1.08;76.96;96591.00;5091467;28;20251;-75
2022/12/20 07:29:20;;;;;;;15.15;10.02;;;;;;;0.82;74.76;96594.09;5095682;28;20262;-76
2022/12/20 07:31:46;;;;;;;18.17;12.13;;;;;;;0.44;75.11;96598.25;5096058;28;20280;-75
2022/12/20 07:34:14;;;;;;;21.85;11.93;;;;;;;0.57;75.37;96593.72;5096086;28;20211;-75
2022/12/20 07:36:41;;;;;;;15.38;11.27;;;;;;;0.26;76.18;96590.81;5096368;28;20201;-74
2022/12/20 07:39:08;;;;;;;19.42;10.80;;;;;;;0.26;76.44;96591.69;5095723;28;20195;-75
2022/12/20 07:41:35;;;;;;;16.85;10.35;;;;;;;0.36;77.10;96583.78;5095809;28;20198;-75
2022/12/20 07:44:02;;;;;;;17.50;10.93;;;;;;;0.25;77.12;96594.28;5095780;28;20202;-74
2022/12/20 07:46:30;;;;;;;17.30;11.18;;;;;;;0.16;79.33;96592.72;5095218;28;20211;-75
2022/12/20 07:48:59;;;;;;;14.75;9.68;;;;;;;0.37;77.22;96586.34;5095382;28;20552;-74
2022/12/20 07:51:31;;;;;;;26.58;9.98;;;;;;;0.44;78.02;96595.69;5095571;28;20238;-75
2022/12/20 07:54:04;;;;;;;16.98;8.40;;;;;;;0.44;78.45;96594.81;5094385;28;20202;-75
2022/12/20 07:56:33;;;;;;;13.02;8.77;;;;;;;0.58;77.22;96593.72;5094454;28;20203;-75
2022/12/20 07:59:01;;;;;;;19.83;9.63;;;;;;;0.68;77.20;96585.78;5094653;28;20583;-75
2022/12/20 08:01:30;;;;;;;20.33;10.00;;;;;;;0.70;76.53;96584.03;5094289;28;20698;-75
2022/12/20 08:04:02;;;;;;;12.75;8.68;;;;;;;0.88;76.03;96583.66;5094097;28;20222;-75
2022/12/20 08:06:31;;;;;;;15.25;8.48;;;;;;;0.87;75.30;96582.81;5093970;28;20202;-76
2022/12/20 08:09:02;;;;;;;19.70;10.40;;;;;;;0.98;75.16;96571.41;5094397;28;20226;-74
2022/12/20 08:11:30;;;;;;;12.38;8.25;;;;;;;0.85;75.54;96563.03;5094501;28;20220;-75
2022/12/20 08:13:57;;;;;;;14.60;9.95;;;;;;;0.95;75.27;96563.72;5094153;28;20293;-75
2022/12/20 08:16:25;;;;;;;18.63;10.40;;;;;;;1.05;74.49;96570.38;5094153;28;20667;-75
2022/12/20 08:18:52;;;;;;;17.13;10.60;;;;;;;1.01;74.56;96567.03;5094052;28;20207;-74
2022/12/20 08:21:18;;;;;;;13.10;9.93;;;;;;;1.04;75.12;96566.09;5093728;28;20719;-75
2022/12/20 08:23:47;;;;;;;14.80;9.07;;;;;;;1.15;74.46;96567.56;5093839;28;20453;-74
2022/12/20 08:26:14;;;;;;;15.60;10.30;;;;;;;1.14;74.62;96568.47;5093700;28;20255;-75
2022/12/20 08:28:40;;;;;;;15.75;10.93;;;;;;;1.03;73.66;96572.16;5093880;28;20496;-75
2022/12/20 08:31:09;;;;;;;14.25;11.10;;;;;;;0.76;75.65;96563.22;5041450;28;20643;-76
2022/12/20 08:33:37;;;;;;;20.67;11.50;;;;;;;0.94;75.74;96568.03;5042250;28;20206;-76
2022/12/20 08:36:07;;;;;;;22.05;9.95;;;;;;;0.83;75.38;96562.22;5093274;28;20293;-75
2022/12/20 08:38:34;;;;;;;14.82;9.98;;;;;;;0.88;76.43;96557.84;5093896;28;20206;-75
2022/12/20 08:41:07;;;;;;;12.75;8.95;;;;;;;0.95;75.38;96551.66;5093687;28;20214;-74
2022/12/20 08:43:35;;;;;;;17.40;9.20;;;;;;;0.98;75.80;96554.16;5093642;28;20202;-75
2022/12/20 08:46:01;;;;;;;22.15;12.57;;;;;;;0.93;75.73;96545.66;5093656;28;20203;-75
2022/12/20 08:48:29;;;;;;;15.63;9.57;;;;;;;0.81;76.18;96548.47;5093534;28;20260;-75
2022/12/20 08:50:56;;;;;;;15.30;8.98;;;;;;;0.90;76.48;96543.16;5093117;28;20223;-75
2022/12/20 08:53:23;;;;;;;23.52;12.18;;;;;;;0.97;76.86;96546.44;5093447;28;20210;-75
2022/12/20 08:55:50;;;;;;;16.42;8.55;;;;;;;0.96;75.82;96545.59;5057604;28;20198;-74
2022/12/20 08:58:19;;;;;;;15.88;8.40;;;;;;;1.02;75.08;96547.19;5057647;28;20332;-75
2022/12/20 09:00:46;;;;;;;16.23;10.27;;;;;;;1.03;75.17;96543.72;5093059;28;20201;-75
2022/12/20 09:03:12;;;;;;;20.13;10.70;;;;;;;1.12;75.18;96546.97;5092973;28;20294;-75
2022/12/20 09:05:45;;;;;;;23.63;13.70;;;;;;;1.23;73.46;96545.00;5041116;28;20209;-76
2022/12/20 09:08:12;;;;;;;16.90;9.00;;;;;;;1.35;73.70;96543.88;5093210;28;20241;-75
2022/12/20 09:10:39;;;;;;;14.47;10.07;;;;;;;1.44;73.90;96540.22;5092869;28;20293;-76
2022/12/20 09:13:06;;;;;;;23.67;12.85;;;;;;;1.46;73.29;96523.81;5093139;28;20455;-75
2022/12/20 09:15:36;;;;;;;16.80;8.90;;;;;;;1.48;72.57;96519.47;5040865;28;20212;-76
2022/12/20 09:18:04;;;;;;;12.43;8.87;;;;;;;1.39;72.55;96524.81;5092682;28;20952;-75
2022/12/20 09:20:31;;;;;;;12.80;6.67;;;;;;;1.38;71.54;96519.69;5093160;28;20484;-75
2022/12/20 09:22:59;;;;;;;16.80;8.55;;;;;;;1.45;71.82;96508.34;5092607;28;20487;-75
2022/12/20 09:25:26;;;;;;;15.27;9.80;;;;;;;1.59;72.77;96515.75;5092521;28;20252;-75
2022/12/20 09:27:54;;;;;;;15.30;9.60;;;;;;;1.77;73.74;96500.66;5092550;28;20443;-75
2022/12/20 09:30:21;;;;;;;16.30;7.70;;;;;;;1.70;71.69;96498.22;5092341;28;20208;-75
2022/12/20 09:32:49;;;;;;;13.95;9.10;;;;;;;1.77;72.23;96503.25;5057204;28;20515;-76
2022/12/20 09:35:16;;;;;;;16.15;10.45;;;;;;;1.91;71.88;96491.69;5092603;28;20199;-75
2022/12/20 09:37:43;;;;;;;21.73;11.10;;;;;;;2.15;71.25;96496.22;5092690;28;20203;-75
2022/12/20 09:40:17;;;;;;;15.70;9.57;;;;;;;2.17;70.49;96494.44;5092430;28;20194;-75
2022/12/20 09:42:45;;;;;;;17.93;10.30;;;;;;;2.32;69.82;96494.06;5041590;28;20977;-75
2022/12/20 09:45:22;;;;;;;15.47;10.13;;;;;;;2.37;69.02;96489.59;5092519;28;20457;-75
2022/12/20 09:47:51;;;;;;;13.53;8.60;;;;;;;2.48;68.98;96479.78;5092083;28;20465;-76
2022/12/20 09:50:20;;;;;;;14.03;7.50;;;;;;;2.42;68.63;96484.28;5039808;28;20432;-75
2022/12/20 09:53:10;;;;;;;16.77;8.53;;;;;;;2.48;66.83;96484.13;5091991;28;20496;-74
2022/12/20 09:55:43;;;;;;;14.40;10.13;;;;;;;2.59;67.14;96471.69;5091932;28;20927;-75
2022/12/20 09:58:35;;;;;;;17.70;10.60;;;;;;;2.72;67.13;96472.22;5091870;28;20439;-75
2022/12/20 10:01:16;;;;;;;17.80;9.50;;;;;;;2.80;65.43;96470.25;5092156;28;20487;-74
2022/12/20 10:03:44;;;;;;;13.90;9.13;;;;;;;2.95;64.73;96469.81;5092363;28;20522;-74
2022/12/20 10:06:22;;;;;;;14.40;8.53;;;;;;;3.13;64.97;96462.34;5091866;28;20503;-76
2022/12/20 10:08:54;;;;;;;8.57;6.73;;;;;;;3.15;61.47;96457.97;5091820;28;20447;-75
2022/12/20 10:11:37;;;;;;;11.10;7.97;;;;;;;3.14;61.64;96453.69;5091708;28;20484;-74
2022/12/20 10:14:15;;;;;;;11.20;7.67;;;;;;;3.13;60.59;96452.84;5091798;28;20518;-75
2022/12/20 10:16:46;;;;;;;11.53;7.63;;;;;;;3.29;61.13;96442.84;5092205;28;20447;-75
2022/12/20 10:19:34;;;;;;;18.33;9.33;;;;;;;3.50;61.61;96439.56;5091779;28;20786;-76
2022/12/20 10:22:08;;;;;;;13.93;8.83;;;;;;;3.59;60.53;96428.03;5091760;28;20443;-75
2022/12/20 10:24:36;;;;;;;14.20;8.13;;;;;;;3.69;59.90;96421.63;5092203;28;20484;-75
2022/12/20 10:27:12;;;;;;;9.43;6.17;;;;;;;3.46;58.96;96417.19;5056404;28;20450;-76
2022/12/20 10:29:39;;;;;;;14.63;8.53;;;;;;;3.61;60.21;96395.94;5041706;28;20443;-76
2022/12/20 10:32:13;;;;;;;10.67;7.70;;;;;;;3.62;59.02;96394.19;5091385;28;20487;-75
2022/12/20 10:34:47;;;;;;;12.17;7.93;;;;;;;3.58;60.09;96387.41;5091619;28;20440;-75
2022/12/20 10:37:15;;;;;;;11.70;7.00;;;;;;;3.66;59.60;96378.47;5091900;28;20475;-74
2022/12/20 10:39:44;;;;;;;12.20;7.40;;;;;;;3.65;58.29;96379.38;5091884;28;20443;-76
2022/12/20 10:42:26;;;;;;;8.40;6.63;;;;;;;3.47;57.60;96363.56;5091589;28;20444;-76
2022/12/20 10:44:54;;;;;;;8.67;6.80;;;;;;;3.57;58.48;96355.44;5056271;28;20443;-75
2022/12/20 10:47:30;;;;;;;9.57;6.37;;;;;;;3.56;58.05;96358.91;5039752;28;20444;-75
2022/12/20 10:50:13;;;;;;;7.73;6.47;;;;;;;3.39;57.09;96356.03;5091397;28;20830;-75
2022/12/20 10:52:40;;;;;;;9.83;6.20;;;;;;;3.28;57.34;96365.94;5091902;28;20479;-75
2022/12/20 10:55:34;;;;;;;10.53;6.60;;;;;;;3.13;58.03;96346.50;5091772;28;20463;-75
2022/12/20 10:58:06;;;;;;;15.03;6.60;;;;;;;3.26;58.14;96339.19;5091595;28;20448;-75
2022/12/20 11:00:34;;;;;;;10.17;6.43;;;;;;;3.22;57.73;96346.22;5091791;28;20443;-74
2022/12/20 11:03:14;;;;;;;10.60;6.27;;;;;;;3.20;57.65;96335.06;5039897;28;20987;-75
2022/12/20 11:05:54;;;;;;;9.43;5.97;;;;;;;3.21;57.95;96335.91;5039132;28;20485;-75
2022/12/20 11:08:23;;;;;;;11.53;6.50;;;;;;;3.35;58.20;96338.88;5091855;28;20450;-75
2022/12/20 11:10:50;;;;;;;7.10;4.10;;;;;;;3.34;58.19;96327.66;5091486;28;20448;-75
2022/12/20 11:13:24;;;;;;;11.80;7.90;;;;;;;3.50;58.42;96328.00;5091191;28;20512;-75
2022/12/20 11:15:55;;;;;;;13.90;8.20;;;;;;;3.67;57.28;96320.47;5055515;28;20436;-75
2022/12/20 11:18:35;;;;;;;8.80;6.33;;;;;;;3.91;57.83;96320.50;5091415;28;20443;-74
2022/12/20 11:21:18;;;;;;;28.50;7.60;;;;;;;3.89;58.12;96320.56;5043039;28;20450;-75
2022/12/20 11:23:49;;;;;;;9.13;6.07;;;;;;;3.67;57.31;96310.06;5095344;28;20440;-76
2022/12/20 11:26:27;;;;;;;9.73;7.10;;;;;;;3.94;58.20;96308.25;5095198;28;20444;-75
2022/12/20 11:29:10;;;;;;;11.83;6.30;;;;;;;3.88;56.25;96299.84;5094824;28;20439;-75
2022/12/20 11:31:51;;;;;;;11.47;6.67;;;;;;;3.94;58.69;96292.66;5094605;28;21016;-74
2022/12/20 11:34:27;;;;;;;11.53;6.73;;;;;;;3.90;56.44;96292.84;5094763;28;20451;-75
2022/12/20 11:37:23;;;;;;;11.53;6.80;;;;;;;3.75;56.73;96304.59;5095309;28;20436;-75
2022/12/20 11:40:11;;;;;;;8.27;6.20;;;;;;;3.70;55.84;96296.97;5012386;28;20725;-75
2022/12/20 11:42:52;;;;;;;7.50;5.70;;;;;;;3.70;55.67;96268.44;5012547;28;20432;-76